createdAt,value
2019-02-27T00:01:42.602Z,80.30
2019-02-27T00:04:12.933Z,80.30
2019-02-27T00:06:43.281Z,80.50
2019-02-27T00:09:13.635Z,80.20
2019-02-27T00:11:46.746Z,80.40
2019-02-27T00:14:16.009Z,80.70
2019-02-27T00:16:47.886Z,80.80
2019-02-27T00:19:18.230Z,80.80
2019-02-27T00:21:48.569Z,80.70
2019-02-27T00:24:18.932Z,80.80
2019-02-27T00:26:49.267Z,80.80
2019-02-27T00:29:19.614Z,80.80
2019-02-27T00:31:49.970Z,80.90
2019-02-27T00:34:20.304Z,81.40
2019-02-27T00:36:50.716Z,80.90
2019-02-27T00:39:21.045Z,80.90
2019-02-27T00:41:51.379Z,80.70
2019-02-27T00:44:22.693Z,80.70
2019-02-27T00:46:53.034Z,80.70
2019-02-27T00:49:23.374Z,80.80
2019-02-27T00:51:53.716Z,81.00
2019-02-27T00:54:24.051Z,81.30
2019-02-27T00:56:54.401Z,81.10
2019-02-27T00:59:24.730Z,81.00
2019-02-27T01:01:55.097Z,81.20
2019-02-27T01:04:25.427Z,81.60
2019-02-27T01:06:57.307Z,81.80
2019-02-27T01:09:27.642Z,81.50
2019-02-27T01:11:58.053Z,81.30
2019-02-27T01:14:28.398Z,81.40
2019-02-27T01:16:58.740Z,81.50
2019-02-27T01:19:29.082Z,81.50
2019-02-27T01:21:59.421Z,81.80
2019-02-27T01:24:29.803Z,82.00
2019-02-27T01:27:04.166Z,81.90
2019-02-27T01:29:32.201Z,81.80
2019-02-27T01:32:04.084Z,82.10
2019-02-27T01:34:34.411Z,82.10
2019-02-27T01:37:04.822Z,82.20
2019-02-27T01:39:35.163Z,82.10
2019-02-27T01:42:05.505Z,82.20
2019-02-27T01:44:35.849Z,82.00
2019-02-27T01:47:06.191Z,82.20
2019-02-27T01:49:37.695Z,82.40
2019-02-27T01:52:08.039Z,82.40
2019-02-27T01:54:38.802Z,82.40
2019-02-27T01:57:09.146Z,82.60
2019-02-27T01:59:39.490Z,82.80
2019-02-27T02:02:09.833Z,82.60
2019-02-27T02:04:40.177Z,82.90
2019-02-27T02:07:10.590Z,82.80
2019-02-27T02:09:40.981Z,82.80
2019-02-27T02:12:17.173Z,82.80
2019-02-27T02:15:28.578Z,82.80
2019-02-27T02:18:42.950Z,82.70
2019-02-27T02:21:48.014Z,82.80
2019-02-27T02:25:02.534Z,82.90
2019-02-27T02:27:43.927Z,82.60
2019-02-27T02:30:41.578Z,82.90
2019-02-27T02:33:37.172Z,83.00
2019-02-27T02:36:27.838Z,83.20
2019-02-27T02:39:39.594Z,83.40
2019-02-27T02:42:35.499Z,83.40
2019-02-27T02:45:16.433Z,83.50
2019-02-27T02:48:20.878Z,83.60
2019-02-27T02:51:29.002Z,83.60
2019-02-27T02:54:37.922Z,83.70
2019-02-27T02:57:25.411Z,83.60
2019-02-27T03:00:01.999Z,83.60
2019-02-27T03:03:17.545Z,83.60
2019-02-27T03:06:25.803Z,83.60
2019-02-27T03:09:09.137Z,83.80
2019-02-27T03:12:13.003Z,83.80
2019-02-27T03:15:28.428Z,84.00
2019-02-27T03:17:59.518Z,84.10
2019-02-27T03:24:27.956Z,84.00
2019-02-27T03:27:12.756Z,84.20
2019-02-27T03:30:17.853Z,84.20
2019-02-27T03:33:24.768Z,84.30
2019-02-27T03:36:23.318Z,84.40
2019-02-27T03:39:35.139Z,84.60
2019-02-27T03:42:48.346Z,84.50
2019-02-27T03:45:58.538Z,85.00
2019-02-27T03:48:39.088Z,84.70
2019-02-27T03:51:33.138Z,84.90
2019-02-27T03:54:21.391Z,84.90
2019-02-27T03:57:18.962Z,84.70
2019-02-27T04:00:21.989Z,84.80
2019-02-27T04:03:09.622Z,84.70
2019-02-27T04:05:47.379Z,84.70
2019-02-27T04:08:33.460Z,84.80
2019-02-27T04:11:06.033Z,84.80
2019-02-27T04:13:35.909Z,84.80
2019-02-27T04:16:06.246Z,84.90
2019-02-27T04:18:34.958Z,85.00
2019-02-27T04:21:05.381Z,84.90
2019-02-27T04:23:36.024Z,84.80
2019-02-27T04:26:06.706Z,84.90
2019-02-27T04:28:37.185Z,84.90
2019-02-27T04:31:07.521Z,84.90
2019-02-27T04:33:39.161Z,84.90
2019-02-27T04:36:12.466Z,84.90
2019-02-27T04:38:41.537Z,84.90
2019-02-27T04:41:11.868Z,85.00
2019-02-27T04:43:42.217Z,85.00
2019-02-27T04:46:12.545Z,85.00
2019-02-27T04:48:43.868Z,85.10
2019-02-27T04:51:16.951Z,85.10
2019-02-27T04:53:46.258Z,85.10
2019-02-27T04:56:16.592Z,85.10
2019-02-27T04:58:46.944Z,85.10
2019-02-27T05:01:17.285Z,85.20
2019-02-27T05:03:47.650Z,85.40
2019-02-27T05:06:17.998Z,85.30
2019-02-27T05:08:48.346Z,85.40
2019-02-27T05:11:18.685Z,85.50
2019-02-27T05:13:49.035Z,85.40
2019-02-27T05:16:19.377Z,85.30
2019-02-27T05:18:49.826Z,85.50
2019-02-27T05:21:20.181Z,85.30
2019-02-27T05:23:50.528Z,84.80
2019-02-27T05:26:20.867Z,85.70
2019-02-27T05:28:51.220Z,85.70
2019-02-27T05:31:21.564Z,85.60
2019-02-27T05:33:51.914Z,85.60
2019-02-27T05:36:22.275Z,85.60
2019-02-27T05:38:52.641Z,85.50
2019-02-27T05:41:22.981Z,85.60
2019-02-27T05:43:53.328Z,85.70
2019-02-27T05:46:23.675Z,85.60
2019-02-27T05:48:54.034Z,85.60
2019-02-27T05:51:24.351Z,85.60
2019-02-27T05:53:56.133Z,85.60
2019-02-27T05:56:26.741Z,86.10
2019-02-27T05:58:57.107Z,85.60
2019-02-27T06:01:27.449Z,85.90
2019-02-27T06:03:57.782Z,85.70
2019-02-27T06:06:28.125Z,85.60
2019-02-27T06:08:58.470Z,85.70
2019-02-27T06:11:29.568Z,85.70
2019-02-27T06:14:00.843Z,85.90
2019-02-27T06:16:31.180Z,85.90
2019-02-27T06:19:01.526Z,85.90
2019-02-27T06:21:31.864Z,86.00
2019-02-27T06:24:02.219Z,86.00
2019-02-27T06:26:32.986Z,86.00
2019-02-27T06:29:03.379Z,85.90
2019-02-27T06:31:36.837Z,85.90
2019-02-27T06:34:05.774Z,85.90
2019-02-27T06:36:36.111Z,86.10
2019-02-27T06:39:09.402Z,86.00
2019-02-27T06:41:40.081Z,86.00
2019-02-27T06:44:10.380Z,86.00
2019-02-27T06:46:40.706Z,86.00
2019-02-27T06:49:11.050Z,86.10
2019-02-27T06:51:41.386Z,86.10
2019-02-27T06:54:12.698Z,86.10
2019-02-27T06:56:51.119Z,86.10
2019-02-27T06:59:25.256Z,86.10
2019-02-27T07:01:56.234Z,86.20
2019-02-27T07:04:26.950Z,86.20
2019-02-27T07:07:08.106Z,86.30
2019-02-27T07:09:35.235Z,86.30
2019-02-27T07:12:07.102Z,87.10
2019-02-27T07:14:39.271Z,86.60
2019-02-27T07:17:09.745Z,86.40
2019-02-27T07:19:40.374Z,86.50
2019-02-27T07:22:12.674Z,86.60
2019-02-27T07:24:44.138Z,86.90
2019-02-27T07:27:14.486Z,87.00
2019-02-27T07:29:44.825Z,86.90
2019-02-27T07:32:15.171Z,86.60
2019-02-27T07:34:46.717Z,86.30
2019-02-27T07:37:17.561Z,85.90
2019-02-27T07:39:47.903Z,85.30
2019-02-27T07:42:18.234Z,85.00
2019-02-27T07:44:48.597Z,84.70
2019-02-27T07:47:18.928Z,84.40
2019-02-27T07:49:49.282Z,84.20
2019-02-27T07:52:19.610Z,84.10
2019-02-27T07:54:51.210Z,84.20
2019-02-27T07:57:22.896Z,84.10
2019-02-27T07:59:53.144Z,84.10
2019-02-27T08:02:23.482Z,83.80
2019-02-27T08:04:57.021Z,84.00
2019-02-27T08:07:27.359Z,83.90
2019-02-27T08:09:57.701Z,83.90
2019-02-27T08:12:28.029Z,84.10
2019-02-27T08:14:59.749Z,83.80
2019-02-27T08:17:30.185Z,83.90
2019-02-27T08:20:01.460Z,84.30
2019-02-27T08:22:31.867Z,83.80
2019-02-27T08:25:02.205Z,84.10
2019-02-27T08:27:32.679Z,84.40
2019-02-27T08:30:03.038Z,84.00
2019-02-27T08:32:35.244Z,83.80
2019-02-27T08:35:06.969Z,83.40
2019-02-27T08:37:37.309Z,82.90
2019-02-27T08:40:11.435Z,82.50
2019-02-27T08:42:41.779Z,82.30
2019-02-27T08:45:20.952Z,81.00
2019-02-27T08:47:51.315Z,80.60
2019-02-27T08:50:25.325Z,79.80
2019-02-27T08:52:57.759Z,79.20
2019-02-27T08:55:27.726Z,78.60
2019-02-27T08:57:58.074Z,78.20
2019-02-27T09:00:35.219Z,77.80
2019-02-27T09:03:05.641Z,77.50
2019-02-27T09:05:36.000Z,76.70
2019-02-27T09:08:07.359Z,76.40
2019-02-27T09:10:38.379Z,75.50
2019-02-27T09:13:09.788Z,74.80
2019-02-27T09:15:41.757Z,72.80
2019-02-27T09:18:12.224Z,71.50
2019-02-27T09:20:42.591Z,70.10
2019-02-27T09:23:12.927Z,69.80
2019-02-27T09:25:43.285Z,69.00
2019-02-27T09:28:13.647Z,68.30
2019-02-27T09:30:43.998Z,68.20
2019-02-27T09:33:16.884Z,67.10
2019-02-27T09:35:46.477Z,66.30
2019-02-27T09:38:16.817Z,65.40
2019-02-27T09:40:47.169Z,65.70
2019-02-27T09:43:17.513Z,65.50
2019-02-27T09:45:47.950Z,65.00
2019-02-27T09:48:19.309Z,63.80
2019-02-27T09:50:49.747Z,63.50
2019-02-27T09:53:20.087Z,63.10
2019-02-27T09:55:53.529Z,60.40
2019-02-27T09:58:24.362Z,62.00
2019-02-27T10:01:03.106Z,59.60
2019-02-27T10:03:33.597Z,59.00
2019-02-27T10:06:04.023Z,58.80
2019-02-27T10:08:34.373Z,58.20
2019-02-27T10:11:04.815Z,58.60
2019-02-27T10:13:35.518Z,54.60
2019-02-27T10:16:07.297Z,51.40
2019-02-27T10:18:37.646Z,54.80
2019-02-27T10:21:09.448Z,53.50
2019-02-27T10:23:40.068Z,50.70
2019-02-27T10:26:10.428Z,49.70
2019-02-27T10:28:40.785Z,49.90
2019-02-27T10:31:12.761Z,49.80
2019-02-27T10:33:43.658Z,48.50
2019-02-27T10:36:14.150Z,46.60
2019-02-27T10:38:45.514Z,47.20
2019-02-27T10:41:15.923Z,46.80
2019-02-27T10:43:46.274Z,45.60
2019-02-27T10:46:16.628Z,46.10
2019-02-27T10:48:47.626Z,43.80
2019-02-27T10:51:18.097Z,45.00
2019-02-27T10:53:50.342Z,43.80
2019-02-27T10:56:21.587Z,44.20
2019-02-27T10:58:52.596Z,42.90
2019-02-27T11:01:22.931Z,42.30
2019-02-27T11:03:54.614Z,42.80
2019-02-27T11:06:33.511Z,42.00
2019-02-27T11:08:57.045Z,41.90
2019-02-27T11:11:27.460Z,42.00
2019-02-27T11:13:57.812Z,41.40
2019-02-27T11:16:28.462Z,40.90
2019-02-27T11:18:58.849Z,40.30
2019-02-27T11:21:29.197Z,39.80
2019-02-27T11:23:59.543Z,37.70
2019-02-27T11:26:33.014Z,39.90
2019-02-27T11:29:01.971Z,37.90
2019-02-27T11:31:32.388Z,38.60
2019-02-27T11:34:05.085Z,39.00
2019-02-27T11:36:38.933Z,38.70
2019-02-27T11:39:08.488Z,38.10
2019-02-27T11:41:39.706Z,37.90
2019-02-27T11:44:13.995Z,37.90
2019-02-27T11:46:42.111Z,37.90
2019-02-27T11:49:12.458Z,38.10
2019-02-27T11:51:42.807Z,37.70
2019-02-27T11:54:14.613Z,37.60
2019-02-27T11:56:45.053Z,37.80
2019-02-27T11:59:15.404Z,37.80
2019-02-27T12:01:45.739Z,38.10
2019-02-27T12:04:19.266Z,38.20
2019-02-27T12:06:48.127Z,38.50
2019-02-27T12:09:18.815Z,37.90
2019-02-27T12:11:49.469Z,38.30
2019-02-27T12:14:20.020Z,38.50
2019-02-27T12:16:51.740Z,38.00
2019-02-27T12:19:22.409Z,37.30
2019-02-27T12:21:52.772Z,37.20
2019-02-27T12:24:23.140Z,37.90
2019-02-27T12:26:53.486Z,37.10
2019-02-27T12:29:24.158Z,37.00
2019-02-27T12:31:55.871Z,37.20
2019-02-27T12:34:26.222Z,37.20
2019-02-27T12:36:56.564Z,37.00
2019-02-27T12:39:26.907Z,37.00
2019-02-27T12:41:57.250Z,37.40
2019-02-27T12:44:27.592Z,37.10
2019-02-27T12:46:57.947Z,37.30
2019-02-27T12:49:28.298Z,37.70
2019-02-27T12:51:58.637Z,37.20
2019-02-27T12:54:28.988Z,38.00
2019-02-27T12:56:59.334Z,37.60
2019-02-27T12:59:30.769Z,37.70
2019-02-27T13:02:08.074Z,37.80
2019-02-27T13:04:33.856Z,38.70
2019-02-27T13:07:04.195Z,38.10
2019-02-27T13:09:34.552Z,38.40
2019-02-27T13:12:04.895Z,38.70
2019-02-27T13:14:35.261Z,38.90
2019-02-27T13:17:05.713Z,39.40
2019-02-27T13:19:38.516Z,39.40
2019-02-27T13:22:08.071Z,39.70
2019-02-27T13:24:38.687Z,39.80
2019-02-27T13:27:09.840Z,40.00
2019-02-27T13:29:40.262Z,40.00
2019-02-27T13:32:10.600Z,39.80
2019-02-27T13:34:40.951Z,40.10
2019-02-27T13:37:11.288Z,40.50
2019-02-27T13:39:41.640Z,40.60
2019-02-27T13:42:11.985Z,40.90
2019-02-27T13:44:42.334Z,40.80
2019-02-27T13:47:12.680Z,40.50
2019-02-27T13:49:45.041Z,40.90
2019-02-27T13:52:15.085Z,41.00
2019-02-27T13:54:45.438Z,41.40
2019-02-27T13:57:15.887Z,41.50
2019-02-27T13:59:46.232Z,41.40
2019-02-27T14:02:16.580Z,41.10
2019-02-27T14:04:46.921Z,41.30
2019-02-27T14:07:18.290Z,41.30
2019-02-27T14:09:51.244Z,41.10
2019-02-27T14:12:21.595Z,41.10
2019-02-27T14:14:53.293Z,41.10
2019-02-27T14:17:24.180Z,41.50
2019-02-27T14:19:55.298Z,41.40
2019-02-27T14:22:26.171Z,41.60
2019-02-27T14:24:58.300Z,41.90
2019-02-27T14:27:29.348Z,42.10
2019-02-27T14:30:03.263Z,42.40
2019-02-27T14:32:33.032Z,42.60
2019-02-27T14:35:04.345Z,42.40
2019-02-27T14:37:34.693Z,42.50
2019-02-27T14:40:09.411Z,42.30
2019-02-27T14:42:39.834Z,42.10
2019-02-27T14:45:20.225Z,42.10
2019-02-27T14:47:50.574Z,42.10
2019-02-27T14:50:25.616Z,42.40
2019-02-27T14:52:55.969Z,42.20
2019-02-27T14:55:26.322Z,42.30
2019-02-27T14:57:56.665Z,42.70
2019-02-27T15:00:39.839Z,42.90
2019-02-27T15:03:08.944Z,42.70
2019-02-27T15:05:43.398Z,42.80
2019-02-27T15:08:12.307Z,43.10
2019-02-27T15:10:42.658Z,42.90
2019-02-27T15:13:13.015Z,43.00
2019-02-27T15:15:44.386Z,43.20
2019-02-27T15:18:15.695Z,43.40
2019-02-27T15:20:46.035Z,43.40
2019-02-27T15:23:17.994Z,43.60
2019-02-27T15:25:48.349Z,43.80
2019-02-27T15:28:18.695Z,43.70
2019-02-27T15:30:49.046Z,43.80
2019-02-27T15:33:19.395Z,44.20
2019-02-27T15:35:49.745Z,44.40
2019-02-27T15:38:20.103Z,44.70
2019-02-27T15:40:50.449Z,44.70
2019-02-27T15:43:20.804Z,45.00
2019-02-27T15:45:51.148Z,45.00
2019-02-27T15:48:21.499Z,45.30
2019-02-27T15:50:56.339Z,45.20
2019-02-27T15:53:23.915Z,45.70
2019-02-27T15:55:54.268Z,45.80
2019-02-27T15:58:25.304Z,46.80
2019-02-27T16:00:57.154Z,46.30
2019-02-27T16:03:27.492Z,46.30
2019-02-27T16:05:57.844Z,46.40
2019-02-27T16:08:29.257Z,46.20
2019-02-27T16:10:59.612Z,45.90
2019-02-27T16:13:32.035Z,45.80
2019-02-27T16:16:04.761Z,45.30
2019-02-27T16:18:36.913Z,45.60
2019-02-27T16:21:07.966Z,45.60
2019-02-27T16:23:38.327Z,45.50
2019-02-27T16:26:08.685Z,45.40
2019-02-27T16:28:39.030Z,45.60
2019-02-27T16:31:19.509Z,45.70
2019-02-27T16:33:49.866Z,46.00
2019-02-27T16:36:20.223Z,46.00
2019-02-27T16:38:50.580Z,46.20
2019-02-27T16:41:21.245Z,46.40
2019-02-27T16:43:51.605Z,46.40
2019-02-27T16:46:22.887Z,46.80
2019-02-27T16:48:53.300Z,47.00
2019-02-27T16:51:23.655Z,47.30
2019-02-27T16:53:54.005Z,47.40
2019-02-27T16:56:24.359Z,47.70
2019-02-27T16:58:54.724Z,48.10
2019-02-27T17:01:26.322Z,48.50
2019-02-27T17:04:00.330Z,48.50
2019-02-27T17:06:29.176Z,48.70
2019-02-27T17:08:59.567Z,49.30
2019-02-27T17:11:32.523Z,49.70
2019-02-27T17:14:03.603Z,49.80
2019-02-27T17:16:33.974Z,50.30
2019-02-27T17:19:04.316Z,50.50
2019-02-27T17:21:34.659Z,50.90
2019-02-27T17:24:05.075Z,51.50
2019-02-27T17:26:39.043Z,51.90
2019-02-27T17:29:07.479Z,52.00
2019-02-27T17:31:37.830Z,52.70
2019-02-27T17:34:13.445Z,52.80
2019-02-27T17:36:41.192Z,53.50
2019-02-27T17:39:11.603Z,53.90
2019-02-27T17:41:44.682Z,53.80
2019-02-27T17:44:14.089Z,54.50
2019-02-27T17:46:44.420Z,54.60
2019-02-27T17:49:15.150Z,54.70
2019-02-27T17:51:45.491Z,54.90
2019-02-27T17:54:15.843Z,55.40
2019-02-27T17:56:47.248Z,55.60
2019-02-27T17:59:18.481Z,55.90
2019-02-27T18:01:48.884Z,56.70
2019-02-27T18:04:19.235Z,56.50
2019-02-27T18:06:49.579Z,56.80
2019-02-27T18:09:20.301Z,57.60
2019-02-27T18:11:52.544Z,57.40
2019-02-27T18:14:25.025Z,57.40
2019-02-27T18:16:59.191Z,56.90
2019-02-27T18:19:28.633Z,57.60
2019-02-27T18:21:58.979Z,57.90
2019-02-27T18:24:33.332Z,58.00
2019-02-27T18:27:01.378Z,58.20
2019-02-27T18:29:31.724Z,59.00
2019-02-27T18:32:06.196Z,60.00
2019-02-27T18:34:34.126Z,59.60
2019-02-27T18:37:04.919Z,59.70
2019-02-27T18:39:36.537Z,60.30
2019-02-27T18:42:07.490Z,60.80
2019-02-27T18:44:40.659Z,60.60
2019-02-27T18:47:09.989Z,60.80
2019-02-27T18:49:42.403Z,61.20
2019-02-27T18:52:21.051Z,61.20
2019-02-27T18:54:44.880Z,61.50
2019-02-27T18:57:15.235Z,61.80
2019-02-27T18:59:45.592Z,62.20
2019-02-27T19:02:19.634Z,62.70
2019-02-27T19:04:47.986Z,62.60
2019-02-27T19:07:20.172Z,63.00
2019-02-27T19:09:50.387Z,63.10
2019-02-27T19:12:25.050Z,63.30
2019-02-27T19:14:52.849Z,63.30
2019-02-27T19:17:23.338Z,63.70
2019-02-27T19:19:54.633Z,63.70
2019-02-27T19:22:25.103Z,63.80
2019-02-27T19:24:57.464Z,64.30
2019-02-27T19:27:27.567Z,64.50
2019-02-27T19:29:57.922Z,64.70
2019-02-27T19:32:28.269Z,64.70
2019-02-27T19:34:58.626Z,64.70
2019-02-27T19:37:30.146Z,65.20
2019-02-27T19:40:00.501Z,65.10
2019-02-27T19:42:32.472Z,65.40
2019-02-27T19:45:04.393Z,65.60
2019-02-27T19:47:35.120Z,65.60
2019-02-27T19:50:11.248Z,67.10
2019-02-27T19:52:41.418Z,67.30
2019-02-27T19:55:12.966Z,67.50
2019-02-27T19:57:43.544Z,67.90
2019-02-27T20:00:20.731Z,67.90
2019-02-27T20:02:55.225Z,68.50
2019-02-27T20:05:23.651Z,68.60
2019-02-27T20:07:54.849Z,68.90
2019-02-27T20:10:28.914Z,69.10
2019-02-27T20:12:57.872Z,69.30
2019-02-27T20:15:28.463Z,69.40
2019-02-27T20:17:58.873Z,69.60
2019-02-27T20:20:30.068Z,70.00
2019-02-27T20:23:00.670Z,70.10
2019-02-27T20:25:32.923Z,70.40
2019-02-27T20:28:03.385Z,70.60
2019-02-27T20:30:33.736Z,71.00
2019-02-27T20:33:04.282Z,71.10
2019-02-27T20:35:34.620Z,71.30
2019-02-27T20:38:05.114Z,71.50
2019-02-27T20:40:35.458Z,72.00
2019-02-27T20:43:05.795Z,72.10
2019-02-27T20:45:36.187Z,72.50
2019-02-27T20:48:06.667Z,72.80
2019-02-27T20:50:40.829Z,73.20
2019-02-27T20:53:13.896Z,73.70
2019-02-27T20:55:44.336Z,73.80
2019-02-27T20:58:16.840Z,74.20
2019-02-27T21:00:47.040Z,73.70
2019-02-27T21:03:17.385Z,73.60
2019-02-27T21:05:48.614Z,73.70
2019-02-27T21:08:19.046Z,73.30
2019-02-27T21:10:54.722Z,73.30
2019-02-27T21:13:21.495Z,73.30
2019-02-27T21:15:51.856Z,73.20
2019-02-27T21:18:22.192Z,73.10
2019-02-27T21:20:52.556Z,73.30
2019-02-27T21:23:22.900Z,72.80
2019-02-27T21:25:53.241Z,72.70
2019-02-27T21:28:23.578Z,72.90
2019-02-27T21:30:53.920Z,72.90
2019-02-27T21:33:24.253Z,72.80
2019-02-27T21:35:54.632Z,72.80
2019-02-27T21:38:24.973Z,73.00
2019-02-27T21:40:55.308Z,72.90
2019-02-27T21:43:26.349Z,72.90
2019-02-27T21:45:56.709Z,72.90
2019-02-27T21:48:27.868Z,73.10
2019-02-27T21:50:58.271Z,73.10
2019-02-27T21:53:29.681Z,73.20
2019-02-27T21:56:01.123Z,73.30
2019-02-27T21:58:32.957Z,73.30
2019-02-27T22:01:03.392Z,73.50
2019-02-27T22:03:35.293Z,73.60
2019-02-27T22:06:05.911Z,73.60
2019-02-27T22:08:38.868Z,73.70
2019-02-27T22:11:09.358Z,73.90
2019-02-27T22:13:42.255Z,73.80
2019-02-27T22:16:12.828Z,73.80
2019-02-27T22:18:46.759Z,73.80
2019-02-27T22:21:15.196Z,73.80
2019-02-27T22:23:45.986Z,73.80
2019-02-27T22:26:16.459Z,74.00
2019-02-27T22:28:46.802Z,74.40
2019-02-27T22:31:17.134Z,74.40
2019-02-27T22:33:47.479Z,74.40
2019-02-27T22:36:17.820Z,74.50
2019-02-27T22:38:48.164Z,74.70
2019-02-27T22:41:18.507Z,74.80
2019-02-27T22:43:48.860Z,75.10
2019-02-27T22:46:19.198Z,75.20
2019-02-27T22:48:49.546Z,75.50
2019-02-27T22:51:19.887Z,75.70
2019-02-27T22:53:50.233Z,75.90
2019-02-27T22:56:20.575Z,76.80
2019-02-27T22:58:51.671Z,76.20
2019-02-27T23:01:24.076Z,76.40
2019-02-27T23:03:57.850Z,76.50
2019-02-27T23:06:31.946Z,76.50
2019-02-27T23:09:02.390Z,76.70
2019-02-27T23:11:36.793Z,76.90
2019-02-27T23:14:06.887Z,77.10
2019-02-27T23:16:37.362Z,77.30
2019-02-27T23:19:07.770Z,77.60
2019-02-27T23:21:38.178Z,77.90
2019-02-27T23:24:10.146Z,78.00
2019-02-27T23:26:41.318Z,78.10
2019-02-27T23:29:11.669Z,78.30
2019-02-27T23:31:42.008Z,78.60
2019-02-27T23:34:12.359Z,78.70
2019-02-27T23:36:43.777Z,78.90
2019-02-27T23:39:14.484Z,79.10
2019-02-27T23:41:44.827Z,79.00
2019-02-27T23:44:15.168Z,79.10
2019-02-27T23:46:49.743Z,79.30
2019-02-27T23:49:17.553Z,79.30
2019-02-27T23:51:48.524Z,79.60
2019-02-27T23:54:19.122Z,79.70
2019-02-27T23:56:51.882Z,79.80
2019-02-27T23:59:21.539Z,79.90
